createdAt,value
2023-04-09T00:01:57.964Z,9.70
2023-04-09T00:04:25.916Z,9.70
2023-04-09T00:06:55.188Z,9.60
2023-04-09T00:09:23.064Z,9.60
2023-04-09T00:11:50.886Z,9.60
2023-04-09T00:14:18.756Z,9.70
2023-04-09T00:16:46.673Z,9.80
2023-04-09T00:19:14.553Z,9.80
2023-04-09T00:21:42.376Z,9.80
2023-04-09T00:24:11.556Z,9.80
2023-04-09T00:26:39.554Z,9.80
2023-04-09T00:29:07.393Z,9.70
2023-04-09T00:31:35.490Z,9.70
2023-04-09T00:34:03.379Z,9.60
2023-04-09T00:36:31.201Z,9.60
2023-04-09T00:38:59.066Z,9.70
2023-04-09T00:41:28.223Z,9.70
2023-04-09T00:43:57.433Z,9.70
2023-04-09T00:46:25.398Z,9.70
2023-04-09T00:48:53.549Z,9.70
2023-04-09T00:51:21.530Z,9.70
2023-04-09T00:53:49.513Z,9.70
2023-04-09T00:56:19.573Z,9.80
2023-04-09T00:58:49.002Z,9.70
2023-04-09T01:01:17.079Z,9.80
2023-04-09T01:03:45.102Z,9.70
2023-04-09T01:06:28.963Z,9.70
2023-04-09T01:09:07.079Z,9.70
2023-04-09T01:11:40.351Z,9.60
2023-04-09T01:14:15.878Z,9.60
2023-04-09T01:16:47.257Z,9.60
2023-04-09T01:19:28.906Z,9.60
2023-04-09T01:21:58.817Z,9.60
2023-04-09T01:24:46.886Z,9.60
2023-04-09T01:27:16.252Z,9.60
2023-04-09T01:29:48.982Z,9.60
2023-04-09T01:32:19.500Z,9.70
2023-04-09T01:34:48.965Z,9.70
2023-04-09T01:37:17.840Z,9.70
2023-04-09T01:39:47.044Z,9.70
2023-04-09T01:42:17.504Z,9.60
2023-04-09T01:44:48.457Z,9.60
2023-04-09T01:47:17.080Z,9.50
2023-04-09T01:49:45.740Z,9.50
2023-04-09T01:52:13.659Z,9.40
2023-04-09T01:54:41.480Z,9.40
2023-04-09T01:57:09.360Z,9.30
2023-04-09T01:59:37.232Z,9.30
2023-04-09T02:02:10.896Z,9.30
2023-04-09T02:04:44.802Z,9.20
2023-04-09T02:07:19.623Z,9.20
2023-04-09T02:09:49.436Z,9.20
2023-04-09T02:12:19.661Z,9.20
2023-04-09T02:14:49.834Z,9.20
2023-04-09T02:17:19.431Z,9.20
2023-04-09T02:19:48.636Z,9.20
2023-04-09T02:22:17.600Z,9.10
2023-04-09T02:24:46.844Z,9.10
2023-04-09T02:27:14.728Z,9.00
2023-04-09T02:29:42.648Z,9.00
2023-04-09T02:32:10.534Z,8.90
2023-04-09T02:34:39.676Z,9.00
2023-04-09T02:37:07.530Z,9.00
2023-04-09T02:39:35.367Z,8.90
2023-04-09T02:42:03.343Z,8.90
2023-04-09T02:44:31.231Z,8.80
2023-04-09T02:46:59.325Z,8.80
2023-04-09T02:49:27.424Z,8.70
2023-04-09T02:51:56.637Z,8.70
2023-04-09T02:54:24.476Z,8.60
2023-04-09T02:56:52.341Z,8.60
2023-04-09T02:59:20.167Z,8.60
2023-04-09T03:01:48.132Z,8.50
2023-04-09T03:04:16.120Z,8.50
2023-04-09T03:06:44.030Z,8.50
2023-04-09T03:09:13.172Z,8.40
2023-04-09T03:11:41.039Z,8.30
2023-04-09T03:14:08.833Z,8.30
2023-04-09T03:16:36.630Z,8.30
2023-04-09T03:19:04.562Z,8.30
2023-04-09T03:21:33.126Z,8.30
2023-04-09T03:24:02.125Z,8.20
2023-04-09T03:26:36.092Z,8.20
2023-04-09T03:29:04.077Z,8.20
2023-04-09T03:31:32.001Z,8.20
2023-04-09T03:33:59.941Z,8.30
2023-04-09T03:36:28.766Z,8.20
2023-04-09T03:38:56.584Z,8.20
2023-04-09T03:41:24.471Z,8.20
2023-04-09T03:43:53.585Z,8.20
2023-04-09T03:46:21.444Z,8.20
2023-04-09T03:48:49.291Z,8.30
2023-04-09T03:51:17.261Z,8.10
2023-04-09T03:53:45.534Z,8.10
2023-04-09T03:56:13.370Z,8.20
2023-04-09T03:58:41.165Z,8.20
2023-04-09T04:01:10.428Z,8.20
2023-04-09T04:03:38.426Z,8.20
2023-04-09T04:06:06.544Z,8.30
2023-04-09T04:08:34.390Z,8.20
2023-04-09T04:11:05.276Z,8.20
2023-04-09T04:13:33.229Z,8.20
2023-04-09T04:16:01.078Z,8.20
2023-04-09T04:18:30.305Z,8.10
2023-04-09T04:20:58.165Z,8.10
2023-04-09T04:23:25.956Z,8.10
2023-04-09T04:25:53.925Z,8.20
2023-04-09T04:28:21.714Z,8.10
2023-04-09T04:30:49.530Z,8.10
2023-04-09T04:33:17.368Z,8.00
2023-04-09T04:35:46.591Z,8.10
2023-04-09T04:38:14.492Z,8.00
2023-04-09T04:40:42.317Z,8.10
2023-04-09T04:43:10.233Z,8.00
2023-04-09T04:45:38.052Z,8.00
2023-04-09T04:48:06.005Z,8.00
2023-04-09T04:50:33.820Z,8.00
2023-04-09T04:53:02.982Z,8.00
2023-04-09T04:55:30.799Z,8.00
2023-04-09T04:57:58.734Z,8.00
2023-04-09T05:00:26.618Z,8.00
2023-04-09T05:02:54.572Z,8.00
2023-04-09T05:05:22.580Z,8.00
2023-04-09T05:07:50.381Z,7.90
2023-04-09T05:10:19.747Z,7.80
2023-04-09T05:12:47.564Z,7.80
2023-04-09T05:15:15.381Z,7.80
2023-04-09T05:17:43.948Z,7.80
2023-04-09T05:20:12.913Z,7.90
2023-04-09T05:22:40.731Z,7.90
2023-04-09T05:25:10.437Z,8.00
2023-04-09T05:27:39.582Z,8.00
2023-04-09T05:30:08.820Z,8.00
2023-04-09T05:32:36.674Z,8.00
2023-04-09T05:35:04.886Z,7.90
2023-04-09T05:37:32.741Z,8.00
2023-04-09T05:40:00.663Z,8.00
2023-04-09T05:42:28.590Z,8.00
2023-04-09T05:44:57.747Z,8.10
2023-04-09T05:47:25.649Z,8.00
2023-04-09T05:49:53.601Z,8.00
2023-04-09T05:52:21.475Z,8.00
2023-04-09T05:54:49.348Z,7.90
2023-04-09T05:57:17.404Z,7.80
2023-04-09T05:59:45.289Z,7.80
2023-04-09T06:02:14.744Z,7.70
2023-04-09T06:04:42.722Z,7.80
2023-04-09T06:07:10.687Z,7.70
2023-04-09T06:09:38.635Z,7.60
2023-04-09T06:12:06.511Z,7.70
2023-04-09T06:14:34.310Z,7.70
2023-04-09T06:17:02.193Z,7.90
2023-04-09T06:19:31.456Z,7.80
2023-04-09T06:21:59.349Z,7.90
2023-04-09T06:24:27.237Z,8.00
2023-04-09T06:26:57.883Z,8.10
2023-04-09T06:29:25.780Z,8.10
2023-04-09T06:31:54.018Z,8.10
2023-04-09T06:34:21.915Z,8.10
2023-04-09T06:36:51.094Z,8.20
2023-04-09T06:39:19.065Z,8.40
2023-04-09T06:41:47.475Z,8.40
2023-04-09T06:44:15.350Z,8.50
2023-04-09T06:46:43.256Z,8.40
2023-04-09T06:49:11.276Z,8.40
2023-04-09T06:51:39.081Z,8.50
2023-04-09T06:54:08.287Z,8.60
2023-04-09T06:56:36.138Z,8.60
2023-04-09T06:59:04.526Z,8.70
2023-04-09T07:01:32.633Z,8.70
2023-04-09T07:04:00.901Z,8.70
2023-04-09T07:06:28.822Z,8.90
2023-04-09T07:08:56.656Z,8.90
2023-04-09T07:11:26.377Z,9.00
2023-04-09T07:13:56.648Z,9.00
2023-04-09T07:16:24.504Z,9.00
2023-04-09T07:18:52.333Z,9.00
2023-04-09T07:21:20.341Z,9.00
2023-04-09T07:23:48.133Z,9.00
2023-04-09T07:26:15.913Z,9.00
2023-04-09T07:28:45.603Z,9.00
2023-04-09T07:31:13.920Z,9.10
2023-04-09T07:33:41.755Z,9.20
2023-04-09T07:36:09.674Z,9.40
2023-04-09T07:38:37.512Z,9.60
2023-04-09T07:41:05.785Z,9.60
2023-04-09T07:43:33.707Z,9.60
2023-04-09T07:46:03.083Z,9.70
2023-04-09T07:48:31.272Z,9.70
2023-04-09T07:50:59.108Z,9.80
2023-04-09T07:53:26.953Z,9.90
2023-04-09T07:55:54.754Z,10.10
2023-04-09T07:58:22.754Z,10.20
2023-04-09T08:00:50.553Z,10.30
2023-04-09T08:03:20.207Z,10.40
2023-04-09T08:05:48.213Z,10.50
2023-04-09T08:08:16.009Z,10.60
2023-04-09T08:10:43.855Z,10.70
2023-04-09T08:13:12.115Z,10.70
2023-04-09T08:15:40.045Z,10.70
2023-04-09T08:18:08.211Z,10.70
2023-04-09T08:20:37.851Z,10.60
2023-04-09T08:23:05.678Z,10.60
2023-04-09T08:25:33.490Z,10.60
2023-04-09T08:28:01.284Z,10.60
2023-04-09T08:30:29.188Z,10.70
2023-04-09T08:32:57.391Z,10.80
2023-04-09T08:35:25.309Z,11.00
2023-04-09T08:37:54.444Z,11.20
2023-04-09T08:40:22.557Z,11.40
2023-04-09T08:42:55.857Z,11.50
2023-04-09T08:45:24.035Z,11.70
2023-04-09T08:47:52.892Z,11.90
2023-04-09T08:50:28.084Z,12.20
2023-04-09T08:52:59.209Z,12.60
2023-04-09T08:55:27.121Z,12.70
2023-04-09T08:57:56.366Z,12.90
2023-04-09T09:00:24.210Z,12.90
2023-04-09T09:03:06.082Z,12.80
2023-04-09T09:05:38.684Z,13.00
2023-04-09T09:08:08.639Z,13.30
2023-04-09T09:10:41.302Z,13.50
2023-04-09T09:13:22.385Z,13.70
2023-04-09T09:15:55.094Z,13.90
2023-04-09T09:18:38.030Z,14.10
2023-04-09T09:21:11.883Z,14.30
2023-04-09T09:23:42.302Z,14.40
2023-04-09T09:26:14.512Z,14.70
2023-04-09T09:28:46.796Z,14.80
2023-04-09T09:31:15.076Z,14.70
2023-04-09T09:33:43.107Z,15.00
2023-04-09T09:36:11.418Z,15.10
2023-04-09T09:39:09.788Z,15.20
2023-04-09T09:41:37.935Z,15.20
2023-04-09T09:44:07.248Z,15.40
2023-04-09T09:46:37.139Z,15.70
2023-04-09T09:49:05.803Z,15.90
2023-04-09T09:51:36.881Z,16.30
2023-04-09T09:54:09.179Z,16.30
2023-04-09T09:56:40.270Z,16.20
2023-04-09T09:59:13.688Z,15.90
2023-04-09T10:01:41.986Z,15.90
2023-04-09T10:04:14.754Z,15.70
2023-04-09T10:06:45.124Z,15.90
2023-04-09T10:09:14.552Z,15.90
2023-04-09T10:11:45.453Z,15.80
2023-04-09T10:14:14.402Z,15.70
2023-04-09T10:16:43.061Z,15.70
2023-04-09T10:19:14.230Z,16.10
2023-04-09T10:21:48.630Z,16.40
2023-04-09T10:24:18.574Z,16.70
2023-04-09T10:26:46.974Z,17.20
2023-04-09T10:29:16.604Z,17.40
2023-04-09T10:31:49.876Z,17.60
2023-04-09T10:34:19.082Z,17.80
2023-04-09T10:36:51.492Z,17.60
2023-04-09T10:39:21.008Z,17.40
2023-04-09T10:41:50.732Z,17.00
2023-04-09T10:44:22.586Z,16.70
2023-04-09T10:46:51.247Z,16.30
2023-04-09T10:49:20.828Z,16.00
2023-04-09T10:52:02.240Z,16.00
2023-04-09T10:54:47.886Z,16.20
2023-04-09T10:57:21.950Z,16.00
2023-04-09T10:59:51.467Z,15.80
2023-04-09T11:02:48.439Z,15.70
2023-04-09T11:05:44.322Z,15.50
2023-04-09T11:08:14.093Z,15.30
2023-04-09T11:10:44.977Z,15.30
2023-04-09T11:13:13.355Z,15.30
2023-04-09T11:15:41.787Z,15.40
2023-04-09T11:18:10.941Z,15.50
2023-04-09T11:20:39.876Z,15.80
2023-04-09T11:23:08.260Z,16.00
2023-04-09T11:25:36.146Z,16.10
2023-04-09T11:28:06.052Z,15.60
2023-04-09T11:30:35.589Z,15.20
2023-04-09T11:33:03.657Z,15.10
2023-04-09T11:35:31.552Z,15.10
2023-04-09T11:37:59.446Z,15.00
2023-04-09T11:40:29.023Z,14.80
2023-04-09T11:42:57.482Z,14.70
2023-04-09T11:45:29.378Z,14.60
2023-04-09T11:47:57.929Z,14.60
2023-04-09T11:50:26.095Z,14.50
2023-04-09T11:52:53.916Z,14.50
2023-04-09T11:55:25.775Z,14.50
2023-04-09T11:57:55.398Z,14.60
2023-04-09T12:00:24.771Z,14.60
2023-04-09T12:03:02.624Z,14.70
2023-04-09T12:05:31.863Z,14.90
2023-04-09T12:08:01.617Z,14.80
2023-04-09T12:10:30.657Z,14.80
2023-04-09T12:13:03.295Z,14.90
2023-04-09T12:15:33.896Z,14.80
2023-04-09T12:18:03.798Z,14.60
2023-04-09T12:20:34.464Z,14.60
2023-04-09T12:23:04.260Z,14.80
2023-04-09T12:25:32.666Z,14.70
2023-04-09T12:28:00.588Z,14.60
2023-04-09T12:30:28.708Z,14.50
2023-04-09T12:32:57.135Z,14.50
2023-04-09T12:35:26.919Z,14.70
2023-04-09T12:37:54.761Z,15.00
2023-04-09T12:40:23.104Z,15.30
2023-04-09T12:42:51.747Z,15.50
2023-04-09T12:45:20.880Z,15.40
2023-04-09T12:47:48.838Z,15.10
2023-04-09T12:50:17.154Z,15.20
2023-04-09T12:52:47.178Z,15.30
2023-04-09T12:55:16.077Z,15.00
2023-04-09T12:57:46.817Z,14.80
2023-04-09T13:00:15.868Z,14.70
2023-04-09T13:02:43.902Z,14.70
2023-04-09T13:05:12.863Z,14.80
2023-04-09T13:07:42.918Z,14.70
2023-04-09T13:10:12.531Z,14.50
2023-04-09T13:12:40.452Z,14.50
2023-04-09T13:15:08.809Z,14.70
2023-04-09T13:17:36.797Z,14.80
2023-04-09T13:20:05.177Z,14.90
2023-04-09T13:22:33.329Z,15.20
2023-04-09T13:25:01.161Z,15.40
2023-04-09T13:27:30.387Z,15.50
2023-04-09T13:29:58.293Z,15.40
2023-04-09T13:32:26.260Z,15.50
2023-04-09T13:34:55.661Z,15.40
2023-04-09T13:37:23.543Z,16.20
2023-04-09T13:39:51.785Z,16.90
2023-04-09T13:42:19.778Z,17.10
2023-04-09T13:44:48.973Z,18.00
2023-04-09T13:47:17.890Z,18.50
2023-04-09T13:49:45.798Z,18.70
2023-04-09T13:52:14.179Z,18.90
2023-04-09T13:54:42.053Z,18.70
2023-04-09T13:57:10.296Z,19.30
2023-04-09T13:59:39.009Z,19.70
2023-04-09T14:02:08.357Z,20.20
2023-04-09T14:04:36.529Z,19.80
2023-04-09T14:07:04.368Z,20.00
2023-04-09T14:09:32.251Z,20.30
2023-04-09T14:12:01.433Z,20.40
2023-04-09T14:14:29.291Z,20.10
2023-04-09T14:16:57.129Z,19.80
2023-04-09T14:19:26.280Z,19.60
2023-04-09T14:21:55.188Z,19.40
2023-04-09T14:24:23.297Z,19.10
2023-04-09T14:26:53.184Z,19.10
2023-04-09T14:29:21.936Z,18.80
2023-04-09T14:31:49.988Z,18.60
2023-04-09T14:34:17.888Z,18.30
2023-04-09T14:36:47.205Z,17.70
2023-04-09T14:39:15.617Z,17.20
2023-04-09T14:41:43.447Z,17.00
2023-04-09T14:44:11.277Z,16.80
2023-04-09T14:46:39.165Z,16.50
2023-04-09T14:49:07.019Z,16.20
2023-04-09T14:51:34.977Z,16.00
2023-04-09T14:54:04.266Z,15.80
2023-04-09T14:56:32.068Z,15.60
2023-04-09T14:58:59.916Z,15.70
2023-04-09T15:01:28.209Z,15.90
2023-04-09T15:03:56.538Z,15.90
2023-04-09T15:06:24.583Z,16.00
2023-04-09T15:08:52.636Z,16.40
2023-04-09T15:11:23.049Z,17.00
2023-04-09T15:13:52.152Z,17.50
2023-04-09T15:16:24.082Z,18.10
2023-04-09T15:18:52.702Z,18.60
2023-04-09T15:21:20.785Z,19.10
2023-04-09T15:23:50.931Z,19.50
2023-04-09T15:26:19.249Z,20.10
2023-04-09T15:28:49.016Z,20.40
2023-04-09T15:31:16.850Z,19.90
2023-04-09T15:33:45.431Z,19.70
2023-04-09T15:36:13.418Z,19.80
2023-04-09T15:38:41.247Z,20.10
2023-04-09T15:41:10.409Z,20.40
2023-04-09T15:43:38.348Z,20.50
2023-04-09T15:46:11.525Z,20.70
2023-04-09T15:48:39.550Z,20.90
2023-04-09T15:51:07.942Z,21.00
2023-04-09T15:53:35.826Z,21.10
2023-04-09T15:56:03.970Z,20.90
2023-04-09T15:58:31.904Z,20.20
2023-04-09T16:00:59.770Z,20.00
2023-04-09T16:03:29.304Z,19.60
2023-04-09T16:05:57.123Z,18.90
2023-04-09T16:08:26.273Z,18.60
2023-04-09T16:10:54.145Z,18.20
2023-04-09T16:13:21.996Z,18.20
2023-04-09T16:15:51.044Z,18.20
2023-04-09T16:18:19.332Z,18.20
2023-04-09T16:20:48.538Z,18.20
2023-04-09T16:23:16.400Z,18.20
2023-04-09T16:25:44.294Z,18.20
2023-04-09T16:28:14.122Z,18.20
2023-04-09T16:30:42.096Z,18.00
2023-04-09T16:33:09.979Z,17.90
2023-04-09T16:35:39.640Z,17.90
2023-04-09T16:38:09.364Z,17.80
2023-04-09T16:40:37.235Z,17.80
2023-04-09T16:43:05.315Z,17.80
2023-04-09T16:45:33.242Z,17.70
2023-04-09T16:48:01.373Z,17.60
2023-04-09T16:50:29.407Z,17.50
2023-04-09T16:52:57.258Z,17.40
2023-04-09T16:55:26.578Z,17.30
2023-04-09T16:57:55.927Z,17.40
2023-04-09T17:00:23.869Z,17.50
2023-04-09T17:02:52.017Z,17.30
2023-04-09T17:05:20.337Z,17.40
2023-04-09T17:07:48.237Z,17.30
2023-04-09T17:10:16.130Z,17.40
2023-04-09T17:12:45.545Z,17.30
2023-04-09T17:15:13.476Z,17.20
2023-04-09T17:17:41.315Z,17.20
2023-04-09T17:20:09.989Z,17.10
2023-04-09T17:22:39.249Z,16.90
2023-04-09T17:25:08.472Z,16.60
2023-04-09T17:27:36.384Z,16.40
2023-04-09T17:30:06.741Z,16.30
2023-04-09T17:32:35.037Z,16.20
2023-04-09T17:35:03.649Z,16.10
2023-04-09T17:37:31.519Z,16.00
2023-04-09T17:39:59.333Z,16.00
2023-04-09T17:42:27.179Z,15.90
2023-04-09T17:44:54.990Z,15.90
2023-04-09T17:47:24.427Z,15.70
2023-04-09T17:49:53.450Z,15.60
2023-04-09T17:52:21.299Z,15.20
2023-04-09T17:54:50.554Z,15.20
2023-04-09T17:57:18.415Z,15.10
2023-04-09T17:59:46.286Z,15.00
2023-04-09T18:02:14.231Z,14.90
2023-04-09T18:04:43.893Z,14.80
2023-04-09T18:07:11.847Z,14.60
2023-04-09T18:09:40.488Z,14.60
2023-04-09T18:12:08.424Z,14.50
2023-04-09T18:14:36.286Z,14.30
2023-04-09T18:17:04.109Z,14.30
2023-04-09T18:19:32.068Z,14.20
2023-04-09T18:22:01.250Z,14.00
2023-04-09T18:24:29.226Z,14.00
2023-04-09T18:26:57.581Z,13.90
2023-04-09T18:29:27.177Z,13.70
2023-04-09T18:31:55.955Z,13.70
2023-04-09T18:34:24.172Z,13.50
2023-04-09T18:36:52.531Z,13.30
2023-04-09T18:39:22.701Z,13.30
2023-04-09T18:41:51.029Z,13.20
2023-04-09T18:44:18.890Z,13.10
2023-04-09T18:46:46.759Z,13.10
2023-04-09T18:49:14.696Z,13.10
2023-04-09T18:51:42.590Z,13.00
2023-04-09T18:54:10.430Z,12.90
2023-04-09T18:56:39.581Z,12.70
2023-04-09T18:59:07.390Z,12.70
2023-04-09T19:01:35.483Z,12.50
2023-04-09T19:04:03.468Z,12.50
2023-04-09T19:06:33.065Z,12.40
2023-04-09T19:09:01.099Z,12.20
2023-04-09T19:11:29.327Z,12.10
2023-04-09T19:13:58.529Z,11.90
2023-04-09T19:16:26.387Z,11.90
2023-04-09T19:18:54.528Z,11.80
2023-04-09T19:21:23.020Z,11.60
2023-04-09T19:23:50.830Z,11.50
2023-04-09T19:26:19.148Z,11.40
2023-04-09T19:28:47.057Z,11.30
2023-04-09T19:31:16.910Z,11.20
2023-04-09T19:33:45.139Z,11.20
2023-04-09T19:36:14.023Z,11.00
2023-04-09T19:38:41.874Z,11.00
2023-04-09T19:41:09.753Z,10.90
2023-04-09T19:43:39.182Z,10.80
2023-04-09T19:46:08.396Z,10.70
2023-04-09T19:48:40.500Z,10.60
2023-04-09T19:51:08.364Z,10.60
2023-04-09T19:53:37.496Z,10.60
2023-04-09T19:56:05.633Z,10.50
2023-04-09T19:58:33.620Z,10.50
2023-04-09T20:01:01.598Z,10.40
2023-04-09T20:03:29.699Z,10.40
2023-04-09T20:05:59.066Z,10.20
2023-04-09T20:08:27.345Z,10.10
2023-04-09T20:10:55.239Z,10.00
2023-04-09T20:13:23.320Z,10.00
2023-04-09T20:15:51.636Z,9.90
2023-04-09T20:18:19.556Z,9.90
2023-04-09T20:20:47.502Z,9.80
2023-04-09T20:23:16.655Z,9.80
2023-04-09T20:25:44.524Z,9.70
2023-04-09T20:28:12.341Z,9.70
2023-04-09T20:30:40.193Z,9.60
2023-04-09T20:33:08.114Z,9.60
2023-04-09T20:35:36.688Z,9.50
2023-04-09T20:38:04.611Z,9.50
2023-04-09T20:40:37.092Z,9.50
2023-04-09T20:43:04.985Z,9.40
2023-04-09T20:45:32.833Z,9.30
2023-04-09T20:48:01.119Z,9.30
2023-04-09T20:50:29.491Z,9.30
2023-04-09T20:52:57.751Z,9.20
2023-04-09T20:55:25.789Z,9.20
2023-04-09T20:57:56.333Z,9.10
2023-04-09T21:00:24.417Z,9.00
2023-04-09T21:02:52.370Z,8.90
2023-04-09T21:05:23.994Z,8.90
2023-04-09T21:07:52.401Z,8.90
2023-04-09T21:10:20.293Z,8.70
2023-04-09T21:12:48.181Z,8.70
2023-04-09T21:15:17.505Z,8.70
2023-04-09T21:17:45.501Z,8.70
2023-04-09T21:20:14.998Z,8.70
2023-04-09T21:22:42.862Z,8.60
2023-04-09T21:25:11.672Z,8.60
2023-04-09T21:27:40.868Z,8.50
2023-04-09T21:30:09.883Z,8.40
2023-04-09T21:32:39.281Z,8.40
2023-04-09T21:35:07.562Z,8.50
2023-04-09T21:37:37.478Z,8.50
2023-04-09T21:40:06.164Z,8.50
2023-04-09T21:42:34.009Z,8.40
2023-04-09T21:45:02.314Z,8.30
2023-04-09T21:47:30.317Z,8.20
2023-04-09T21:49:59.484Z,8.20
2023-04-09T21:52:27.405Z,8.10
2023-04-09T21:54:55.193Z,8.10
2023-04-09T21:57:23.512Z,8.20
2023-04-09T21:59:51.295Z,8.10
2023-04-09T22:02:19.397Z,8.10
2023-04-09T22:04:47.517Z,8.10
2023-04-09T22:07:16.741Z,8.00
2023-04-09T22:09:44.534Z,8.00
2023-04-09T22:12:12.353Z,8.00
2023-04-09T22:14:41.807Z,7.80
2023-04-09T22:17:09.833Z,7.90
2023-04-09T22:19:37.646Z,7.80
2023-04-09T22:22:05.517Z,7.80
2023-04-09T22:24:34.702Z,7.70
2023-04-09T22:27:02.566Z,7.70
2023-04-09T22:29:32.004Z,7.80
2023-04-09T22:31:59.808Z,7.90
2023-04-09T22:34:27.640Z,8.20
2023-04-09T22:36:55.449Z,8.30
2023-04-09T22:39:23.305Z,8.20
2023-04-09T22:41:53.305Z,8.40
2023-04-09T22:44:21.251Z,8.50
2023-04-09T22:46:49.081Z,8.60
2023-04-09T22:49:17.384Z,8.70
2023-04-09T22:51:46.347Z,8.70
2023-04-09T22:54:14.158Z,8.70
2023-04-09T22:56:41.953Z,8.80
2023-04-09T22:59:11.127Z,8.90
2023-04-09T23:01:39.009Z,9.00
2023-04-09T23:04:06.867Z,9.00
2023-04-09T23:06:34.689Z,9.00
2023-04-09T23:09:02.505Z,8.80
2023-04-09T23:11:30.503Z,8.70
2023-04-09T23:13:58.356Z,8.90
2023-04-09T23:16:27.836Z,8.90
2023-04-09T23:18:55.839Z,8.90
2023-04-09T23:21:25.078Z,8.90
2023-04-09T23:23:53.068Z,8.80
2023-04-09T23:26:21.196Z,8.80
2023-04-09T23:28:49.158Z,8.80
2023-04-09T23:31:17.103Z,8.70
2023-04-09T23:33:46.269Z,8.70
2023-04-09T23:36:14.114Z,8.70
2023-04-09T23:38:43.736Z,8.70
2023-04-09T23:41:11.583Z,8.70
2023-04-09T23:43:39.381Z,8.60
2023-04-09T23:46:07.341Z,8.70
2023-04-09T23:48:35.164Z,8.70
2023-04-09T23:51:04.453Z,8.70
2023-04-09T23:53:32.305Z,8.60
2023-04-09T23:56:00.592Z,8.60
2023-04-09T23:58:32.242Z,8.70
